sensor_id;sensor_type;location;lat;lon;timestamp;P1;durP1;ratioP1;P2;durP2;ratioP2
62030;SDS011;62035;52.094;5.112;2022-12-05T00:01:16;44.80;;;18.80;;
62030;SDS011;62035;52.094;5.112;2022-12-05T00:03:47;37.80;;;16.85;;
62030;SDS011;62035;52.094;5.112;2022-12-05T00:06:19;37.40;;;17.67;;
62030;SDS011;62035;52.094;5.112;2022-12-05T00:08:48;41.33;;;18.48;;
62030;SDS011;62035;52.094;5.112;2022-12-05T00:11:16;37.58;;;17.65;;
62030;SDS011;62035;52.094;5.112;2022-12-05T00:13:46;37.45;;;17.23;;
62030;SDS011;62035;52.094;5.112;2022-12-05T00:16:16;42.85;;;18.33;;
62030;SDS011;62035;52.094;5.112;2022-12-05T00:18:47;36.63;;;17.73;;
62030;SDS011;62035;52.094;5.112;2022-12-05T00:21:15;37.13;;;16.75;;
62030;SDS011;62035;52.094;5.112;2022-12-05T00:23:49;39.85;;;17.25;;
62030;SDS011;62035;52.094;5.112;2022-12-05T00:26:18;36.88;;;17.17;;
62030;SDS011;62035;52.094;5.112;2022-12-05T00:28:46;39.05;;;18.27;;
62030;SDS011;62035;52.094;5.112;2022-12-05T00:31:16;37.85;;;17.20;;
62030;SDS011;62035;52.094;5.112;2022-12-05T00:33:45;37.42;;;17.67;;
62030;SDS011;62035;52.094;5.112;2022-12-05T00:36:14;37.58;;;17.55;;
62030;SDS011;62035;52.094;5.112;2022-12-05T00:38:46;37.72;;;17.88;;
62030;SDS011;62035;52.094;5.112;2022-12-05T00:41:15;38.30;;;17.67;;
62030;SDS011;62035;52.094;5.112;2022-12-05T00:43:45;35.50;;;16.95;;
62030;SDS011;62035;52.094;5.112;2022-12-05T00:46:14;37.80;;;16.92;;
62030;SDS011;62035;52.094;5.112;2022-12-05T00:48:45;35.05;;;16.60;;
62030;SDS011;62035;52.094;5.112;2022-12-05T00:51:14;38.25;;;16.52;;
62030;SDS011;62035;52.094;5.112;2022-12-05T00:53:44;37.70;;;16.38;;
62030;SDS011;62035;52.094;5.112;2022-12-05T00:56:17;36.67;;;17.05;;
62030;SDS011;62035;52.094;5.112;2022-12-05T00:58:47;33.78;;;17.00;;
62030;SDS011;62035;52.094;5.112;2022-12-05T01:01:16;34.83;;;18.13;;
62030;SDS011;62035;52.094;5.112;2022-12-05T01:03:47;39.58;;;18.33;;
62030;SDS011;62035;52.094;5.112;2022-12-05T01:06:18;42.85;;;17.83;;
62030;SDS011;62035;52.094;5.112;2022-12-05T01:08:48;37.47;;;17.58;;
62030;SDS011;62035;52.094;5.112;2022-12-05T01:11:17;38.90;;;17.70;;
62030;SDS011;62035;52.094;5.112;2022-12-05T01:13:46;37.97;;;16.40;;
62030;SDS011;62035;52.094;5.112;2022-12-05T01:16:14;37.55;;;17.02;;
62030;SDS011;62035;52.094;5.112;2022-12-05T01:18:43;38.80;;;16.67;;
62030;SDS011;62035;52.094;5.112;2022-12-05T01:21:10;36.92;;;17.25;;
62030;SDS011;62035;52.094;5.112;2022-12-05T01:23:39;42.17;;;17.33;;
62030;SDS011;62035;52.094;5.112;2022-12-05T01:26:08;37.08;;;16.85;;
62030;SDS011;62035;52.094;5.112;2022-12-05T01:28:39;38.63;;;16.63;;
62030;SDS011;62035;52.094;5.112;2022-12-05T01:31:07;42.30;;;16.95;;
62030;SDS011;62035;52.094;5.112;2022-12-05T01:33:42;39.72;;;18.33;;
62030;SDS011;62035;52.094;5.112;2022-12-05T01:36:10;38.78;;;18.23;;
62030;SDS011;62035;52.094;5.112;2022-12-05T01:38:38;41.00;;;17.88;;
62030;SDS011;62035;52.094;5.112;2022-12-05T01:41:10;36.03;;;16.63;;
62030;SDS011;62035;52.094;5.112;2022-12-05T01:46:22;36.35;;;15.95;;
62030;SDS011;62035;52.094;5.112;2022-12-05T01:48:51;34.95;;;16.45;;
62030;SDS011;62035;52.094;5.112;2022-12-05T01:51:23;37.97;;;17.08;;
62030;SDS011;62035;52.094;5.112;2022-12-05T01:53:51;42.78;;;18.70;;
62030;SDS011;62035;52.094;5.112;2022-12-05T01:56:20;38.38;;;17.15;;
62030;SDS011;62035;52.094;5.112;2022-12-05T01:58:48;42.92;;;18.45;;
62030;SDS011;62035;52.094;5.112;2022-12-05T02:01:18;40.65;;;17.70;;
62030;SDS011;62035;52.094;5.112;2022-12-05T02:03:47;47.50;;;17.67;;
62030;SDS011;62035;52.094;5.112;2022-12-05T02:06:20;42.55;;;18.50;;
62030;SDS011;62035;52.094;5.112;2022-12-05T02:08:49;41.75;;;17.73;;
62030;SDS011;62035;52.094;5.112;2022-12-05T02:11:18;42.80;;;17.42;;
62030;SDS011;62035;52.094;5.112;2022-12-05T02:13:52;41.45;;;19.17;;
62030;SDS011;62035;52.094;5.112;2022-12-05T02:16:46;39.58;;;17.80;;
62030;SDS011;62035;52.094;5.112;2022-12-05T02:19:34;41.00;;;18.40;;
62030;SDS011;62035;52.094;5.112;2022-12-05T02:22:26;40.90;;;17.73;;
62030;SDS011;62035;52.094;5.112;2022-12-05T02:25:28;39.63;;;17.42;;
62030;SDS011;62035;52.094;5.112;2022-12-05T02:28:43;41.67;;;17.70;;
62030;SDS011;62035;52.094;5.112;2022-12-05T02:31:43;37.28;;;16.15;;
62030;SDS011;62035;52.094;5.112;2022-12-05T02:34:23;38.38;;;17.33;;
62030;SDS011;62035;52.094;5.112;2022-12-05T02:36:59;39.28;;;17.00;;
62030;SDS011;62035;52.094;5.112;2022-12-05T02:39:36;39.45;;;16.67;;
62030;SDS011;62035;52.094;5.112;2022-12-05T02:42:17;38.15;;;16.35;;
62030;SDS011;62035;52.094;5.112;2022-12-05T02:44:54;38.47;;;17.30;;
62030;SDS011;62035;52.094;5.112;2022-12-05T02:47:30;43.65;;;18.15;;
62030;SDS011;62035;52.094;5.112;2022-12-05T02:50:05;37.38;;;18.48;;
62030;SDS011;62035;52.094;5.112;2022-12-05T02:52:37;37.47;;;17.27;;
62030;SDS011;62035;52.094;5.112;2022-12-05T02:55:07;39.55;;;18.00;;
62030;SDS011;62035;52.094;5.112;2022-12-05T02:57:35;41.42;;;17.55;;
62030;SDS011;62035;52.094;5.112;2022-12-05T03:00:05;38.72;;;17.38;;
62030;SDS011;62035;52.094;5.112;2022-12-05T03:02:38;38.28;;;17.48;;
62030;SDS011;62035;52.094;5.112;2022-12-05T03:05:09;37.45;;;17.27;;
62030;SDS011;62035;52.094;5.112;2022-12-05T03:07:49;41.40;;;18.35;;
62030;SDS011;62035;52.094;5.112;2022-12-05T03:10:23;38.47;;;17.75;;
62030;SDS011;62035;52.094;5.112;2022-12-05T03:12:58;36.10;;;16.55;;
62030;SDS011;62035;52.094;5.112;2022-12-05T03:15:33;40.45;;;18.13;;
62030;SDS011;62035;52.094;5.112;2022-12-05T03:18:10;39.08;;;17.02;;
62030;SDS011;62035;52.094;5.112;2022-12-05T03:20:45;39.60;;;18.30;;
62030;SDS011;62035;52.094;5.112;2022-12-05T03:23:19;37.97;;;17.98;;
62030;SDS011;62035;52.094;5.112;2022-12-05T03:25:53;36.33;;;16.50;;
62030;SDS011;62035;52.094;5.112;2022-12-05T03:28:38;42.75;;;19.45;;
62030;SDS011;62035;52.094;5.112;2022-12-05T03:31:29;39.95;;;17.52;;
62030;SDS011;62035;52.094;5.112;2022-12-05T03:34:08;37.30;;;16.80;;
62030;SDS011;62035;52.094;5.112;2022-12-05T03:36:48;34.65;;;16.77;;
62030;SDS011;62035;52.094;5.112;2022-12-05T03:39:20;39.17;;;17.88;;
62030;SDS011;62035;52.094;5.112;2022-12-05T03:41:55;44.75;;;17.85;;
62030;SDS011;62035;52.094;5.112;2022-12-05T03:44:35;37.97;;;17.13;;
62030;SDS011;62035;52.094;5.112;2022-12-05T03:47:14;36.53;;;16.20;;
62030;SDS011;62035;52.094;5.112;2022-12-05T03:49:50;35.58;;;16.83;;
62030;SDS011;62035;52.094;5.112;2022-12-05T03:52:26;34.60;;;15.10;;
62030;SDS011;62035;52.094;5.112;2022-12-05T03:55:01;34.85;;;16.02;;
62030;SDS011;62035;52.094;5.112;2022-12-05T03:57:36;30.35;;;14.70;;
62030;SDS011;62035;52.094;5.112;2022-12-05T04:00:13;34.97;;;16.42;;
62030;SDS011;62035;52.094;5.112;2022-12-05T04:02:46;35.47;;;15.90;;
62030;SDS011;62035;52.094;5.112;2022-12-05T04:05:23;33.38;;;15.95;;
62030;SDS011;62035;52.094;5.112;2022-12-05T04:07:57;32.38;;;15.68;;
62030;SDS011;62035;52.094;5.112;2022-12-05T04:10:32;35.03;;;15.50;;
62030;SDS011;62035;52.094;5.112;2022-12-05T04:13:15;37.17;;;15.88;;
62030;SDS011;62035;52.094;5.112;2022-12-05T04:15:49;33.10;;;15.85;;
62030;SDS011;62035;52.094;5.112;2022-12-05T04:18:41;36.13;;;15.73;;
62030;SDS011;62035;52.094;5.112;2022-12-05T04:21:18;34.78;;;15.63;;
62030;SDS011;62035;52.094;5.112;2022-12-05T04:24:04;34.08;;;14.60;;
62030;SDS011;62035;52.094;5.112;2022-12-05T04:26:58;35.45;;;16.27;;
62030;SDS011;62035;52.094;5.112;2022-12-05T04:29:40;28.23;;;13.88;;
62030;SDS011;62035;52.094;5.112;2022-12-05T04:32:23;31.88;;;14.25;;
62030;SDS011;62035;52.094;5.112;2022-12-05T04:34:57;30.45;;;14.90;;
62030;SDS011;62035;52.094;5.112;2022-12-05T04:37:34;31.77;;;14.70;;
62030;SDS011;62035;52.094;5.112;2022-12-05T04:40:09;28.58;;;13.80;;
62030;SDS011;62035;52.094;5.112;2022-12-05T04:42:44;30.73;;;14.85;;
62030;SDS011;62035;52.094;5.112;2022-12-05T04:45:17;31.58;;;15.40;;
62030;SDS011;62035;52.094;5.112;2022-12-05T04:47:49;34.92;;;15.00;;
62030;SDS011;62035;52.094;5.112;2022-12-05T04:50:23;27.02;;;13.73;;
62030;SDS011;62035;52.094;5.112;2022-12-05T04:52:58;28.83;;;14.23;;
62030;SDS011;62035;52.094;5.112;2022-12-05T04:55:29;37.03;;;13.77;;
62030;SDS011;62035;52.094;5.112;2022-12-05T04:58:04;31.05;;;14.63;;
62030;SDS011;62035;52.094;5.112;2022-12-05T05:00:37;29.23;;;14.60;;
62030;SDS011;62035;52.094;5.112;2022-12-05T05:03:18;32.92;;;15.73;;
62030;SDS011;62035;52.094;5.112;2022-12-05T05:05:53;34.88;;;15.02;;
62030;SDS011;62035;52.094;5.112;2022-12-05T05:08:24;34.42;;;15.05;;
62030;SDS011;62035;52.094;5.112;2022-12-05T05:10:59;37.38;;;15.93;;
62030;SDS011;62035;52.094;5.112;2022-12-05T05:13:35;32.28;;;14.63;;
62030;SDS011;62035;52.094;5.112;2022-12-05T05:16:03;30.50;;;14.43;;
62030;SDS011;62035;52.094;5.112;2022-12-05T05:18:31;34.72;;;14.48;;
62030;SDS011;62035;52.094;5.112;2022-12-05T05:20:59;36.58;;;15.38;;
62030;SDS011;62035;52.094;5.112;2022-12-05T05:23:28;35.88;;;16.13;;
62030;SDS011;62035;52.094;5.112;2022-12-05T05:25:56;35.05;;;16.08;;
62030;SDS011;62035;52.094;5.112;2022-12-05T05:28:23;32.75;;;15.80;;
62030;SDS011;62035;52.094;5.112;2022-12-05T05:30:51;38.25;;;16.40;;
62030;SDS011;62035;52.094;5.112;2022-12-05T05:33:18;36.17;;;16.25;;
62030;SDS011;62035;52.094;5.112;2022-12-05T05:35:46;35.67;;;16.73;;
62030;SDS011;62035;52.094;5.112;2022-12-05T05:38:13;34.65;;;16.60;;
62030;SDS011;62035;52.094;5.112;2022-12-05T05:40:42;34.33;;;15.82;;
62030;SDS011;62035;52.094;5.112;2022-12-05T05:43:10;34.33;;;16.67;;
62030;SDS011;62035;52.094;5.112;2022-12-05T05:45:37;38.90;;;17.73;;
62030;SDS011;62035;52.094;5.112;2022-12-05T05:48:05;37.95;;;17.15;;
62030;SDS011;62035;52.094;5.112;2022-12-05T05:50:33;35.63;;;17.80;;
62030;SDS011;62035;52.094;5.112;2022-12-05T05:53:00;41.47;;;16.98;;
62030;SDS011;62035;52.094;5.112;2022-12-05T05:55:28;41.55;;;17.35;;
62030;SDS011;62035;52.094;5.112;2022-12-05T05:57:56;35.92;;;17.65;;
62030;SDS011;62035;52.094;5.112;2022-12-05T06:00:24;37.42;;;15.45;;
62030;SDS011;62035;52.094;5.112;2022-12-05T06:02:52;39.45;;;16.55;;
62030;SDS011;62035;52.094;5.112;2022-12-05T06:05:19;39.10;;;16.77;;
62030;SDS011;62035;52.094;5.112;2022-12-05T06:07:47;39.50;;;17.98;;
62030;SDS011;62035;52.094;5.112;2022-12-05T06:10:14;36.20;;;16.50;;
62030;SDS011;62035;52.094;5.112;2022-12-05T06:12:42;38.80;;;16.25;;
62030;SDS011;62035;52.094;5.112;2022-12-05T06:15:12;38.90;;;16.58;;
62030;SDS011;62035;52.094;5.112;2022-12-05T06:17:39;36.30;;;17.08;;
62030;SDS011;62035;52.094;5.112;2022-12-05T06:20:07;36.40;;;15.45;;
62030;SDS011;62035;52.094;5.112;2022-12-05T06:22:36;38.60;;;15.80;;
62030;SDS011;62035;52.094;5.112;2022-12-05T06:25:04;36.17;;;15.88;;
62030;SDS011;62035;52.094;5.112;2022-12-05T06:27:33;37.60;;;15.98;;
62030;SDS011;62035;52.094;5.112;2022-12-05T06:30:01;31.80;;;15.27;;
62030;SDS011;62035;52.094;5.112;2022-12-05T06:32:30;34.40;;;14.70;;
62030;SDS011;62035;52.094;5.112;2022-12-05T06:34:57;32.83;;;15.40;;
62030;SDS011;62035;52.094;5.112;2022-12-05T06:37:25;37.55;;;15.90;;
62030;SDS011;62035;52.094;5.112;2022-12-05T06:39:53;34.13;;;15.20;;
62030;SDS011;62035;52.094;5.112;2022-12-05T06:42:20;35.13;;;15.48;;
62030;SDS011;62035;52.094;5.112;2022-12-05T06:44:48;35.45;;;16.17;;
62030;SDS011;62035;52.094;5.112;2022-12-05T06:47:15;37.80;;;16.50;;
62030;SDS011;62035;52.094;5.112;2022-12-05T06:49:44;36.13;;;15.48;;
62030;SDS011;62035;52.094;5.112;2022-12-05T06:52:12;37.00;;;16.15;;
62030;SDS011;62035;52.094;5.112;2022-12-05T06:54:39;34.17;;;15.95;;
62030;SDS011;62035;52.094;5.112;2022-12-05T06:57:07;37.90;;;16.40;;
62030;SDS011;62035;52.094;5.112;2022-12-05T06:59:34;37.72;;;16.55;;
62030;SDS011;62035;52.094;5.112;2022-12-05T07:02:02;38.25;;;16.27;;
62030;SDS011;62035;52.094;5.112;2022-12-05T07:04:32;31.45;;;15.57;;
62030;SDS011;62035;52.094;5.112;2022-12-05T07:07:02;35.25;;;15.27;;
62030;SDS011;62035;52.094;5.112;2022-12-05T07:09:29;32.78;;;15.35;;
62030;SDS011;62035;52.094;5.112;2022-12-05T07:12:13;28.90;;;14.45;;
62030;SDS011;62035;52.094;5.112;2022-12-05T07:14:43;36.20;;;15.18;;
62030;SDS011;62035;52.094;5.112;2022-12-05T07:17:12;33.45;;;14.68;;
62030;SDS011;62035;52.094;5.112;2022-12-05T07:19:39;29.75;;;14.68;;
62030;SDS011;62035;52.094;5.112;2022-12-05T07:22:08;31.75;;;14.07;;
62030;SDS011;62035;52.094;5.112;2022-12-05T07:24:36;33.70;;;14.70;;
62030;SDS011;62035;52.094;5.112;2022-12-05T07:27:04;31.73;;;14.60;;
62030;SDS011;62035;52.094;5.112;2022-12-05T07:29:32;32.60;;;14.43;;
62030;SDS011;62035;52.094;5.112;2022-12-05T07:31:59;32.67;;;14.32;;
62030;SDS011;62035;52.094;5.112;2022-12-05T07:34:27;29.70;;;14.43;;
62030;SDS011;62035;52.094;5.112;2022-12-05T07:36:55;25.42;;;12.20;;
62030;SDS011;62035;52.094;5.112;2022-12-05T07:39:24;26.42;;;12.57;;
62030;SDS011;62035;52.094;5.112;2022-12-05T07:41:51;27.55;;;11.73;;
62030;SDS011;62035;52.094;5.112;2022-12-05T07:44:19;25.15;;;12.85;;
62030;SDS011;62035;52.094;5.112;2022-12-05T07:46:46;25.27;;;13.10;;
62030;SDS011;62035;52.094;5.112;2022-12-05T07:49:14;25.25;;;12.60;;
62030;SDS011;62035;52.094;5.112;2022-12-05T07:51:42;25.48;;;11.52;;
62030;SDS011;62035;52.094;5.112;2022-12-05T07:54:10;23.23;;;11.60;;
62030;SDS011;62035;52.094;5.112;2022-12-05T07:56:38;22.55;;;10.70;;
62030;SDS011;62035;52.094;5.112;2022-12-05T07:59:06;21.85;;;11.02;;
62030;SDS011;62035;52.094;5.112;2022-12-05T08:01:34;22.27;;;11.75;;
62030;SDS011;62035;52.094;5.112;2022-12-05T08:04:01;23.85;;;10.82;;
62030;SDS011;62035;52.094;5.112;2022-12-05T08:06:29;22.20;;;11.52;;
62030;SDS011;62035;52.094;5.112;2022-12-05T08:08:59;25.85;;;11.07;;
62030;SDS011;62035;52.094;5.112;2022-12-05T08:11:27;22.70;;;11.57;;
62030;SDS011;62035;52.094;5.112;2022-12-05T08:14:02;17.77;;;9.98;;
62030;SDS011;62035;52.094;5.112;2022-12-05T08:16:32;18.55;;;10.48;;
62030;SDS011;62035;52.094;5.112;2022-12-05T08:19:00;20.67;;;10.48;;
62030;SDS011;62035;52.094;5.112;2022-12-05T08:21:31;18.98;;;10.60;;
62030;SDS011;62035;52.094;5.112;2022-12-05T08:23:59;19.20;;;11.00;;
62030;SDS011;62035;52.094;5.112;2022-12-05T08:26:27;21.25;;;11.15;;
62030;SDS011;62035;52.094;5.112;2022-12-05T08:28:57;22.33;;;11.38;;
62030;SDS011;62035;52.094;5.112;2022-12-05T08:31:29;23.20;;;11.50;;
62030;SDS011;62035;52.094;5.112;2022-12-05T08:33:59;21.85;;;11.70;;
62030;SDS011;62035;52.094;5.112;2022-12-05T08:36:27;19.70;;;10.98;;
62030;SDS011;62035;52.094;5.112;2022-12-05T08:38:57;21.58;;;11.55;;
62030;SDS011;62035;52.094;5.112;2022-12-05T08:41:27;18.40;;;10.48;;
62030;SDS011;62035;52.094;5.112;2022-12-05T08:43:55;20.25;;;10.85;;
62030;SDS011;62035;52.094;5.112;2022-12-05T08:46:26;19.90;;;10.45;;
62030;SDS011;62035;52.094;5.112;2022-12-05T08:48:55;17.55;;;9.80;;
62030;SDS011;62035;52.094;5.112;2022-12-05T08:51:22;21.38;;;10.43;;
62030;SDS011;62035;52.094;5.112;2022-12-05T08:53:50;24.52;;;9.73;;
62030;SDS011;62035;52.094;5.112;2022-12-05T08:56:18;20.00;;;10.05;;
62030;SDS011;62035;52.094;5.112;2022-12-05T08:58:45;17.67;;;9.63;;
62030;SDS011;62035;52.094;5.112;2022-12-05T09:01:14;17.80;;;9.68;;
62030;SDS011;62035;52.094;5.112;2022-12-05T09:03:45;16.17;;;9.70;;
62030;SDS011;62035;52.094;5.112;2022-12-05T09:06:16;18.85;;;9.63;;
62030;SDS011;62035;52.094;5.112;2022-12-05T09:08:46;15.57;;;8.75;;
62030;SDS011;62035;52.094;5.112;2022-12-05T09:11:16;14.88;;;8.55;;
62030;SDS011;62035;52.094;5.112;2022-12-05T09:13:46;16.90;;;9.27;;
62030;SDS011;62035;52.094;5.112;2022-12-05T09:16:15;14.32;;;8.25;;
62030;SDS011;62035;52.094;5.112;2022-12-05T09:18:46;13.55;;;8.27;;
62030;SDS011;62035;52.094;5.112;2022-12-05T09:21:17;14.00;;;7.88;;
62030;SDS011;62035;52.094;5.112;2022-12-05T09:26:15;13.90;;;7.30;;
62030;SDS011;62035;52.094;5.112;2022-12-05T09:28:45;12.40;;;7.35;;
62030;SDS011;62035;52.094;5.112;2022-12-05T09:31:14;12.85;;;7.60;;
62030;SDS011;62035;52.094;5.112;2022-12-05T09:33:45;13.00;;;8.03;;
62030;SDS011;62035;52.094;5.112;2022-12-05T09:36:15;12.52;;;7.28;;
62030;SDS011;62035;52.094;5.112;2022-12-05T09:38:48;11.30;;;7.30;;
62030;SDS011;62035;52.094;5.112;2022-12-05T09:41:20;13.80;;;8.20;;
62030;SDS011;62035;52.094;5.112;2022-12-05T09:44:37;12.32;;;7.45;;
62030;SDS011;62035;52.094;5.112;2022-12-05T09:47:32;11.98;;;6.95;;
62030;SDS011;62035;52.094;5.112;2022-12-05T09:50:14;12.00;;;7.25;;
62030;SDS011;62035;52.094;5.112;2022-12-05T09:52:54;10.90;;;7.38;;
62030;SDS011;62035;52.094;5.112;2022-12-05T09:55:34;11.05;;;7.15;;
62030;SDS011;62035;52.094;5.112;2022-12-05T09:58:19;10.15;;;6.75;;
62030;SDS011;62035;52.094;5.112;2022-12-05T10:00:55;12.80;;;7.57;;
62030;SDS011;62035;52.094;5.112;2022-12-05T10:03:33;11.30;;;7.10;;
62030;SDS011;62035;52.094;5.112;2022-12-05T10:06:11;11.65;;;7.30;;
62030;SDS011;62035;52.094;5.112;2022-12-05T10:08:57;11.27;;;6.65;;
62030;SDS011;62035;52.094;5.112;2022-12-05T10:11:41;12.30;;;7.32;;
62030;SDS011;62035;52.094;5.112;2022-12-05T10:14:25;12.55;;;7.40;;
62030;SDS011;62035;52.094;5.112;2022-12-05T10:17:19;8.95;;;5.80;;
62030;SDS011;62035;52.094;5.112;2022-12-05T10:19:55;9.30;;;5.95;;
62030;SDS011;62035;52.094;5.112;2022-12-05T10:25:03;7.18;;;5.30;;
62030;SDS011;62035;52.094;5.112;2022-12-05T10:27:35;11.13;;;6.30;;
62030;SDS011;62035;52.094;5.112;2022-12-05T10:30:08;9.63;;;5.85;;
62030;SDS011;62035;52.094;5.112;2022-12-05T10:32:43;8.45;;;5.65;;
62030;SDS011;62035;52.094;5.112;2022-12-05T10:35:20;7.63;;;5.10;;
62030;SDS011;62035;52.094;5.112;2022-12-05T10:37:50;8.27;;;5.05;;
62030;SDS011;62035;52.094;5.112;2022-12-05T10:40:24;7.10;;;4.65;;
62030;SDS011;62035;52.094;5.112;2022-12-05T10:42:58;7.05;;;4.97;;
62030;SDS011;62035;52.094;5.112;2022-12-05T10:45:26;8.63;;;5.05;;
62030;SDS011;62035;52.094;5.112;2022-12-05T10:47:54;7.30;;;5.10;;
62030;SDS011;62035;52.094;5.112;2022-12-05T10:50:25;6.35;;;4.63;;
62030;SDS011;62035;52.094;5.112;2022-12-05T10:52:57;7.78;;;4.22;;
62030;SDS011;62035;52.094;5.112;2022-12-05T10:55:30;7.93;;;4.40;;
62030;SDS011;62035;52.094;5.112;2022-12-05T10:58:09;6.53;;;4.40;;
62030;SDS011;62035;52.094;5.112;2022-12-05T11:00:40;7.75;;;4.20;;
62030;SDS011;62035;52.094;5.112;2022-12-05T11:03:20;6.13;;;4.10;;
62030;SDS011;62035;52.094;5.112;2022-12-05T11:05:53;6.25;;;4.10;;
62030;SDS011;62035;52.094;5.112;2022-12-05T11:08:23;9.02;;;4.13;;
62030;SDS011;62035;52.094;5.112;2022-12-05T11:11:04;5.68;;;4.20;;
62030;SDS011;62035;52.094;5.112;2022-12-05T11:13:50;8.63;;;4.00;;
62030;SDS011;62035;52.094;5.112;2022-12-05T11:16:21;7.40;;;3.83;;
62030;SDS011;62035;52.094;5.112;2022-12-05T11:18:51;8.55;;;4.30;;
62030;SDS011;62035;52.094;5.112;2022-12-05T11:21:19;5.43;;;3.55;;
62030;SDS011;62035;52.094;5.112;2022-12-05T11:23:47;5.20;;;3.65;;
62030;SDS011;62035;52.094;5.112;2022-12-05T11:26:17;8.23;;;4.53;;
62030;SDS011;62035;52.094;5.112;2022-12-05T11:29:00;8.77;;;3.80;;
62030;SDS011;62035;52.094;5.112;2022-12-05T11:31:29;6.43;;;4.15;;
62030;SDS011;62035;52.094;5.112;2022-12-05T11:33:59;5.75;;;3.85;;
62030;SDS011;62035;52.094;5.112;2022-12-05T11:36:37;6.22;;;4.18;;
62030;SDS011;62035;52.094;5.112;2022-12-05T11:39:10;6.97;;;4.63;;
62030;SDS011;62035;52.094;5.112;2022-12-05T11:41:43;6.53;;;4.07;;
62030;SDS011;62035;52.094;5.112;2022-12-05T11:44:32;6.90;;;4.40;;
62030;SDS011;62035;52.094;5.112;2022-12-05T11:47:38;7.13;;;4.43;;
62030;SDS011;62035;52.094;5.112;2022-12-05T11:50:41;7.93;;;4.40;;
62030;SDS011;62035;52.094;5.112;2022-12-05T11:53:29;10.00;;;4.80;;
62030;SDS011;62035;52.094;5.112;2022-12-05T11:56:17;9.65;;;4.82;;
62030;SDS011;62035;52.094;5.112;2022-12-05T11:59:12;6.95;;;4.57;;
62030;SDS011;62035;52.094;5.112;2022-12-05T12:02:05;10.10;;;5.00;;
62030;SDS011;62035;52.094;5.112;2022-12-05T12:04:53;9.48;;;4.85;;
62030;SDS011;62035;52.094;5.112;2022-12-05T12:07:34;9.70;;;5.10;;
62030;SDS011;62035;52.094;5.112;2022-12-05T12:10:44;8.95;;;4.72;;
62030;SDS011;62035;52.094;5.112;2022-12-05T12:13:27;8.70;;;4.80;;
62030;SDS011;62035;52.094;5.112;2022-12-05T12:16:11;6.80;;;4.40;;
62030;SDS011;62035;52.094;5.112;2022-12-05T12:18:51;9.65;;;4.72;;
62030;SDS011;62035;52.094;5.112;2022-12-05T12:21:40;9.88;;;4.90;;
62030;SDS011;62035;52.094;5.112;2022-12-05T12:24:28;9.65;;;4.35;;
62030;SDS011;62035;52.094;5.112;2022-12-05T12:27:19;9.55;;;4.95;;
62030;SDS011;62035;52.094;5.112;2022-12-05T12:30:10;7.15;;;4.00;;
62030;SDS011;62035;52.094;5.112;2022-12-05T12:32:47;9.13;;;4.65;;
62030;SDS011;62035;52.094;5.112;2022-12-05T12:35:30;10.20;;;4.85;;
62030;SDS011;62035;52.094;5.112;2022-12-05T12:38:13;8.40;;;4.45;;
62030;SDS011;62035;52.094;5.112;2022-12-05T12:40:58;10.80;;;4.70;;
62030;SDS011;62035;52.094;5.112;2022-12-05T12:43:38;6.93;;;4.00;;
62030;SDS011;62035;52.094;5.112;2022-12-05T12:46:26;9.85;;;4.28;;
62030;SDS011;62035;52.094;5.112;2022-12-05T12:49:20;9.02;;;4.60;;
62030;SDS011;62035;52.094;5.112;2022-12-05T12:52:09;7.30;;;3.83;;
62030;SDS011;62035;52.094;5.112;2022-12-05T12:55:02;7.43;;;4.40;;
62030;SDS011;62035;52.094;5.112;2022-12-05T12:57:52;6.38;;;3.83;;
62030;SDS011;62035;52.094;5.112;2022-12-05T13:00:39;7.68;;;3.90;;
62030;SDS011;62035;52.094;5.112;2022-12-05T13:03:28;8.50;;;4.13;;
62030;SDS011;62035;52.094;5.112;2022-12-05T13:06:05;8.57;;;4.35;;
62030;SDS011;62035;52.094;5.112;2022-12-05T13:08:43;7.80;;;3.90;;
62030;SDS011;62035;52.094;5.112;2022-12-05T13:11:19;6.90;;;4.15;;
62030;SDS011;62035;52.094;5.112;2022-12-05T13:13:49;6.70;;;3.50;;
62030;SDS011;62035;52.094;5.112;2022-12-05T13:16:23;6.97;;;4.25;;
62030;SDS011;62035;52.094;5.112;2022-12-05T13:18:57;6.70;;;3.97;;
62030;SDS011;62035;52.094;5.112;2022-12-05T13:21:26;6.63;;;3.97;;
62030;SDS011;62035;52.094;5.112;2022-12-05T13:23:56;7.28;;;3.70;;
62030;SDS011;62035;52.094;5.112;2022-12-05T13:26:28;9.85;;;3.85;;
62030;SDS011;62035;52.094;5.112;2022-12-05T13:28:59;11.38;;;4.00;;
62030;SDS011;62035;52.094;5.112;2022-12-05T13:31:36;6.88;;;4.10;;
62030;SDS011;62035;52.094;5.112;2022-12-05T13:34:25;8.88;;;3.88;;
62030;SDS011;62035;52.094;5.112;2022-12-05T13:37:17;6.72;;;4.18;;
62030;SDS011;62035;52.094;5.112;2022-12-05T13:40:17;9.65;;;3.92;;
62030;SDS011;62035;52.094;5.112;2022-12-05T13:43:14;9.68;;;3.88;;
62030;SDS011;62035;52.094;5.112;2022-12-05T13:45:57;8.45;;;4.78;;
62030;SDS011;62035;52.094;5.112;2022-12-05T13:48:32;8.45;;;4.07;;
62030;SDS011;62035;52.094;5.112;2022-12-05T13:53:37;8.18;;;3.67;;
62030;SDS011;62035;52.094;5.112;2022-12-05T13:56:24;6.93;;;3.70;;
62030;SDS011;62035;52.094;5.112;2022-12-05T13:59:11;10.45;;;3.90;;
62030;SDS011;62035;52.094;5.112;2022-12-05T14:01:44;7.65;;;4.10;;
62030;SDS011;62035;52.094;5.112;2022-12-05T14:07:38;6.85;;;3.58;;
62030;SDS011;62035;52.094;5.112;2022-12-05T14:10:10;9.38;;;3.92;;
62030;SDS011;62035;52.094;5.112;2022-12-05T14:12:53;6.63;;;3.38;;
62030;SDS011;62035;52.094;5.112;2022-12-05T14:15:25;9.57;;;3.78;;
62030;SDS011;62035;52.094;5.112;2022-12-05T14:18:01;6.57;;;3.70;;
62030;SDS011;62035;52.094;5.112;2022-12-05T14:20:46;7.03;;;3.80;;
62030;SDS011;62035;52.094;5.112;2022-12-05T14:23:44;9.00;;;3.20;;
62030;SDS011;62035;52.094;5.112;2022-12-05T14:26:36;5.53;;;3.42;;
62030;SDS011;62035;52.094;5.112;2022-12-05T14:29:34;5.50;;;3.17;;
62030;SDS011;62035;52.094;5.112;2022-12-05T14:32:18;5.70;;;2.92;;
62030;SDS011;62035;52.094;5.112;2022-12-05T14:34:55;5.90;;;3.33;;
62030;SDS011;62035;52.094;5.112;2022-12-05T14:37:31;7.38;;;3.35;;
62030;SDS011;62035;52.094;5.112;2022-12-05T14:40:01;5.15;;;3.30;;
62030;SDS011;62035;52.094;5.112;2022-12-05T14:42:50;7.78;;;3.20;;
62030;SDS011;62035;52.094;5.112;2022-12-05T14:45:29;5.32;;;3.45;;
62030;SDS011;62035;52.094;5.112;2022-12-05T14:48:02;5.85;;;3.40;;
62030;SDS011;62035;52.094;5.112;2022-12-05T14:50:48;6.93;;;4.18;;
62030;SDS011;62035;52.094;5.112;2022-12-05T14:53:26;6.00;;;3.28;;
62030;SDS011;62035;52.094;5.112;2022-12-05T14:56:08;6.13;;;3.10;;
62030;SDS011;62035;52.094;5.112;2022-12-05T14:58:46;6.15;;;3.50;;
62030;SDS011;62035;52.094;5.112;2022-12-05T15:01:22;6.47;;;3.65;;
62030;SDS011;62035;52.094;5.112;2022-12-05T15:04:14;9.70;;;3.55;;
62030;SDS011;62035;52.094;5.112;2022-12-05T15:06:49;6.00;;;3.22;;
62030;SDS011;62035;52.094;5.112;2022-12-05T15:09:27;6.35;;;3.55;;
62030;SDS011;62035;52.094;5.112;2022-12-05T15:12:11;6.63;;;3.83;;
62030;SDS011;62035;52.094;5.112;2022-12-05T15:14:47;7.97;;;4.22;;
62030;SDS011;62035;52.094;5.112;2022-12-05T15:17:28;8.02;;;4.43;;
62030;SDS011;62035;52.094;5.112;2022-12-05T15:20:06;8.38;;;4.55;;
62030;SDS011;62035;52.094;5.112;2022-12-05T15:22:42;8.52;;;5.22;;
62030;SDS011;62035;52.094;5.112;2022-12-05T15:25:23;10.70;;;4.97;;
62030;SDS011;62035;52.094;5.112;2022-12-05T15:27:55;9.27;;;4.78;;
62030;SDS011;62035;52.094;5.112;2022-12-05T15:30:29;9.38;;;4.80;;